AAR102 RKSI-RJAA
Flight info
| Callsign | AAR102 |
|---|---|
| Flight time | N/A |
| Altitude | 39000 |
| Route | EGOBA2Y EGOBA Y697 KARBU DCT LANAT Y51 SAMON Y517 ESKAS Y303 ENTAK Y30 SWAMP SWAMPG |
| Aircraft | A388/J-SADE2E3FGHIJ3J4J5M1RWXY/LB1D1 |
Departure
| Time | 2026-05-03 20:59 |
|---|---|
| Airport | Incheon International Airport (RKSI) |
Arrival
| Time | N/A |
|---|---|
| Airport | Narita International Airport (RJAA) |
| Time | Latitude | Longitude | Altitude | Speed | Heading |
|---|---|---|---|---|---|
| 2026-05-03 20:26 | 37.46036 | 126.44569 | 28 ft | 0 kts | 325° |
| 2026-05-03 20:47 | 37.46035 | 126.44570 | 28 ft | 2 kts | 325° |
| 2026-05-03 20:47 | 37.46022 | 126.44584 | 26 ft | 4 kts | 255° |
| 2026-05-03 20:47 | 37.46036 | 126.44599 | 27 ft | 4 kts | 209° |
| 2026-05-03 20:48 | 37.46057 | 126.44617 | 26 ft | 4 kts | 230° |
| 2026-05-03 20:48 | 37.46063 | 126.44626 | 27 ft | 1 kts | 235° |
| 2026-05-03 20:51 | 37.46050 | 126.44607 | 27 ft | 8 kts | 210° |
| 2026-05-03 20:51 | 37.45961 | 126.44608 | 28 ft | 9 kts | 208° |
| 2026-05-03 20:51 | 37.45909 | 126.44555 | 28 ft | 10 kts | 232° |
| 2026-05-03 20:52 | 37.45869 | 126.44475 | 28 ft | 11 kts | 238° |
| 2026-05-03 20:52 | 37.45825 | 126.44393 | 28 ft | 12 kts | 233° |
| 2026-05-03 20:52 | 37.45768 | 126.44304 | 28 ft | 15 kts | 231° |
| 2026-05-03 20:52 | 37.45701 | 126.44192 | 28 ft | 18 kts | 243° |
| 2026-05-03 20:53 | 37.45625 | 126.44029 | 28 ft | 21 kts | 234° |
| 2026-05-03 20:53 | 37.45540 | 126.43891 | 28 ft | 19 kts | 234° |
| 2026-05-03 20:53 | 37.45488 | 126.43794 | 28 ft | 13 kts | 236° |
| 2026-05-03 20:53 | 37.45407 | 126.43673 | 28 ft | 12 kts | 191° |
| 2026-05-03 20:54 | 37.45320 | 126.43721 | 27 ft | 18 kts | 141° |
| 2026-05-03 20:54 | 37.45065 | 126.43951 | 27 ft | 25 kts | 146° |
| 2026-05-03 20:54 | 37.44922 | 126.44080 | 28 ft | 26 kts | 145° |
| 2026-05-03 20:55 | 37.44764 | 126.44215 | 27 ft | 29 kts | 143° |
| 2026-05-03 20:55 | 37.44634 | 126.44334 | 27 ft | 17 kts | 144° |
| 2026-05-03 20:55 | 37.44514 | 126.44410 | 27 ft | 13 kts | 204° |
| 2026-05-03 20:55 | 37.44447 | 126.44339 | 27 ft | 13 kts | 240° |
| 2026-05-03 20:56 | 37.44436 | 126.44314 | 27 ft | 1 kts | 239° |
| 2026-05-03 20:56 | 37.44386 | 126.44225 | 31 ft | 15 kts | 233° |
| 2026-05-03 20:56 | 37.44374 | 126.44145 | 28 ft | 6 kts | 308° |
| 2026-05-03 20:56 | 37.44390 | 126.44127 | 29 ft | 0 kts | 323° |
| 2026-05-03 20:58 | 37.44401 | 126.44117 | 30 ft | 13 kts | 323° |
| 2026-05-03 20:59 | 37.44722 | 126.43826 | 28 ft | 97 kts | 323° |
| 2026-05-03 20:59 | 37.45438 | 126.43180 | 31 ft | 150 kts | 326° |
| 2026-05-03 20:59 | 37.46352 | 126.42407 | 354 ft | 161 kts | 322° |
| 2026-05-03 20:59 | 37.47262 | 126.41593 | 837 ft | 166 kts | 322° |
| 2026-05-03 21:00 | 37.48183 | 126.40699 | 1383 ft | 170 kts | 316° |
| 2026-05-03 21:00 | 37.48715 | 126.39936 | 1666 ft | 183 kts | 308° |
| 2026-05-03 21:00 | 37.49561 | 126.37947 | 2393 ft | 209 kts | 293° |
| 2026-05-03 21:00 | 37.49943 | 126.36111 | 3156 ft | 224 kts | 285° |
| 2026-05-03 21:01 | 37.50156 | 126.34166 | 4147 ft | 226 kts | 281° |
| 2026-05-03 21:01 | 37.50340 | 126.32124 | 4788 ft | 244 kts | 280° |
| 2026-05-03 21:01 | 37.50488 | 126.29986 | 5755 ft | 246 kts | 278° |
| 2026-05-03 21:01 | 37.50586 | 126.27822 | 6691 ft | 250 kts | 277° |
| 2026-05-03 21:02 | 37.50652 | 126.25661 | 7643 ft | 251 kts | 277° |
| 2026-05-03 21:02 | 37.50709 | 126.23439 | 8534 ft | 256 kts | 277° |
| 2026-05-03 21:02 | 37.50715 | 126.21213 | 9434 ft | 262 kts | 269° |
| 2026-05-03 21:02 | 37.50104 | 126.18994 | 10261 ft | 281 kts | 245° |
| 2026-05-03 21:03 | 37.48711 | 126.17094 | 10620 ft | 315 kts | 221° |
| 2026-05-03 21:03 | 37.46666 | 126.15783 | 10880 ft | 344 kts | 206° |
| 2026-05-03 21:03 | 37.44344 | 126.14866 | 11504 ft | 356 kts | 196° |
| 2026-05-03 21:03 | 37.41831 | 126.14803 | 12301 ft | 369 kts | 175° |
| 2026-05-03 21:04 | 37.39373 | 126.15847 | 13085 ft | 380 kts | 154° |
| 2026-05-03 21:04 | 37.37267 | 126.17891 | 13805 ft | 387 kts | 135° |
| 2026-05-03 21:04 | 37.35514 | 126.20485 | 14457 ft | 391 kts | 128° |
| 2026-05-03 21:04 | 37.33915 | 126.23204 | 15109 ft | 394 kts | 121° |
| 2026-05-03 21:05 | 37.32843 | 126.26364 | 15790 ft | 395 kts | 102° |
| 2026-05-03 21:05 | 37.32538 | 126.29771 | 16450 ft | 393 kts | 87° |
| 2026-05-03 21:05 | 37.32552 | 126.33226 | 17046 ft | 397 kts | 87° |
| 2026-05-03 21:05 | 37.32543 | 126.36699 | 17759 ft | 399 kts | 88° |
| 2026-05-03 21:06 | 37.32519 | 126.40161 | 18342 ft | 403 kts | 88° |
| 2026-05-03 21:06 | 37.32488 | 126.43701 | 18843 ft | 407 kts | 88° |
| 2026-05-03 21:06 | 37.32454 | 126.47227 | 19347 ft | 411 kts | 89° |
| 2026-05-03 21:06 | 37.32415 | 126.50835 | 19867 ft | 415 kts | 89° |
| 2026-05-03 21:07 | 37.32374 | 126.54489 | 20274 ft | 421 kts | 89° |
| 2026-05-03 21:07 | 37.32332 | 126.58180 | 20776 ft | 425 kts | 89° |
| 2026-05-03 21:07 | 37.32287 | 126.61911 | 21255 ft | 429 kts | 90° |
| 2026-05-03 21:07 | 37.32242 | 126.65677 | 21727 ft | 433 kts | 90° |
| 2026-05-03 21:08 | 37.32196 | 126.69474 | 22195 ft | 437 kts | 90° |
| 2026-05-03 21:08 | 37.32148 | 126.73312 | 22672 ft | 441 kts | 90° |
| 2026-05-03 21:08 | 37.32105 | 126.77186 | 23002 ft | 449 kts | 90° |
| 2026-05-03 21:08 | 37.32061 | 126.81078 | 23406 ft | 454 kts | 91° |
| 2026-05-03 21:09 | 37.32015 | 126.85057 | 23796 ft | 458 kts | 91° |
| 2026-05-03 21:09 | 37.31967 | 126.89071 | 24158 ft | 462 kts | 91° |
| 2026-05-03 21:09 | 37.31916 | 126.93117 | 24646 ft | 462 kts | 91° |
| 2026-05-03 21:09 | 37.31912 | 126.97165 | 25033 ft | 466 kts | 86° |
| 2026-05-03 21:10 | 37.32459 | 127.01175 | 25335 ft | 472 kts | 73° |
| 2026-05-03 21:10 | 37.33698 | 127.05016 | 25597 ft | 476 kts | 58° |
| 2026-05-03 21:10 | 37.35367 | 127.08609 | 25978 ft | 479 kts | 57° |
| 2026-05-03 21:10 | 37.37029 | 127.12208 | 26350 ft | 485 kts | 57° |
| 2026-05-03 21:11 | 37.38718 | 127.15899 | 26800 ft | 489 kts | 57° |
| 2026-05-03 21:11 | 37.40421 | 127.19630 | 27188 ft | 494 kts | 57° |
| 2026-05-03 21:11 | 37.42131 | 127.23380 | 27846 ft | 494 kts | 58° |
| 2026-05-03 21:11 | 37.43854 | 127.27166 | 28077 ft | 504 kts | 58° |
| 2026-05-03 21:12 | 37.45605 | 127.31013 | 28438 ft | 510 kts | 58° |
| 2026-05-03 21:12 | 37.47336 | 127.34940 | 28875 ft | 516 kts | 62° |
| 2026-05-03 21:12 | 37.48722 | 127.39142 | 29331 ft | 523 kts | 71° |
| 2026-05-03 21:12 | 37.49673 | 127.43582 | 29735 ft | 528 kts | 79° |
| 2026-05-03 21:13 | 37.50369 | 127.48093 | 30111 ft | 533 kts | 79° |
| 2026-05-03 21:13 | 37.51102 | 127.52686 | 30478 ft | 539 kts | 79° |
| 2026-05-03 21:13 | 37.51848 | 127.57318 | 30958 ft | 540 kts | 79° |
| 2026-05-03 21:13 | 37.52525 | 127.61978 | 31412 ft | 542 kts | 85° |
| 2026-05-03 21:14 | 37.52641 | 127.66722 | 31815 ft | 542 kts | 97° |
| 2026-05-03 21:14 | 37.52089 | 127.71399 | 32243 ft | 539 kts | 108° |
| 2026-05-03 21:14 | 37.50948 | 127.75882 | 32605 ft | 537 kts | 117° |
| 2026-05-03 21:14 | 37.49571 | 127.80254 | 33000 ft | 539 kts | 118° |
| 2026-05-03 21:15 | 37.48186 | 127.84595 | 33421 ft | 543 kts | 117° |
| 2026-05-03 21:15 | 37.46818 | 127.89034 | 33852 ft | 546 kts | 116° |
| 2026-05-03 21:15 | 37.45476 | 127.93522 | 34173 ft | 550 kts | 116° |
| 2026-05-03 21:15 | 37.44148 | 127.98047 | 34510 ft | 553 kts | 117° |
| 2026-05-03 21:16 | 37.42823 | 128.02599 | 34958 ft | 554 kts | 117° |
| 2026-05-03 21:16 | 37.41498 | 128.07145 | 35446 ft | 554 kts | 117° |
| 2026-05-03 21:16 | 37.40173 | 128.11684 | 35948 ft | 553 kts | 117° |
| 2026-05-03 21:16 | 37.38842 | 128.16233 | 36438 ft | 552 kts | 117° |
| 2026-05-03 21:17 | 37.37513 | 128.20765 | 36922 ft | 552 kts | 117° |
| 2026-05-03 21:17 | 37.36633 | 128.23763 | 37240 ft | 552 kts | 117° |
| 2026-05-03 21:17 | 37.34869 | 128.29757 | 37831 ft | 553 kts | 117° |
| 2026-05-03 21:17 | 37.33536 | 128.34282 | 38347 ft | 551 kts | 117° |
| 2026-05-03 21:18 | 37.32204 | 128.38792 | 38721 ft | 552 kts | 117° |
| 2026-05-03 21:18 | 37.30856 | 128.43332 | 38802 ft | 556 kts | 117° |
| 2026-05-03 21:18 | 37.28169 | 128.52399 | 38794 ft | 553 kts | 117° |
| 2026-05-03 21:19 | 37.25492 | 128.61399 | 38813 ft | 555 kts | 117° |
| 2026-05-03 21:19 | 37.22793 | 128.70453 | 38789 ft | 553 kts | 118° |
| 2026-05-03 21:20 | 37.20091 | 128.79474 | 38776 ft | 554 kts | 118° |
| 2026-05-03 21:20 | 37.17369 | 128.88527 | 38790 ft | 555 kts | 118° |
| 2026-05-03 21:21 | 37.14636 | 128.97598 | 38788 ft | 557 kts | 118° |
| 2026-05-03 21:21 | 37.11904 | 129.06636 | 38792 ft | 559 kts | 118° |
| 2026-05-03 21:22 | 37.09142 | 129.15746 | 38772 ft | 560 kts | 119° |
| 2026-05-03 21:22 | 37.06367 | 129.24870 | 38778 ft | 561 kts | 120° |
| 2026-05-03 21:23 | 37.03602 | 129.33918 | 38772 ft | 560 kts | 120° |
| 2026-05-03 21:23 | 37.00814 | 129.43018 | 38748 ft | 560 kts | 120° |
| 2026-05-03 21:24 | 36.98019 | 129.52109 | 38747 ft | 560 kts | 120° |
| 2026-05-03 21:24 | 36.95219 | 129.61192 | 38733 ft | 559 kts | 120° |
| 2026-05-03 21:25 | 36.92433 | 129.70200 | 38738 ft | 559 kts | 121° |
| 2026-05-03 21:25 | 36.89620 | 129.79265 | 38738 ft | 560 kts | 121° |
| 2026-05-03 21:26 | 36.86803 | 129.88318 | 38736 ft | 559 kts | 121° |
| 2026-05-03 21:26 | 36.83976 | 129.97369 | 38734 ft | 560 kts | 121° |
| 2026-05-03 21:27 | 36.81162 | 130.06356 | 38710 ft | 560 kts | 121° |
| 2026-05-03 21:27 | 36.78319 | 130.15403 | 38725 ft | 560 kts | 121° |
| 2026-05-03 21:28 | 36.75468 | 130.24447 | 38731 ft | 561 kts | 121° |
| 2026-05-03 21:28 | 36.72610 | 130.33489 | 38738 ft | 560 kts | 121° |
| 2026-05-03 21:29 | 36.69745 | 130.42520 | 38739 ft | 560 kts | 121° |
| 2026-05-03 21:29 | 36.66893 | 130.51484 | 38745 ft | 559 kts | 122° |
| 2026-05-03 21:30 | 36.64023 | 130.60478 | 38739 ft | 559 kts | 122° |
| 2026-05-03 21:30 | 36.61149 | 130.69455 | 38737 ft | 558 kts | 122° |
| 2026-05-03 21:31 | 36.58266 | 130.78427 | 38752 ft | 558 kts | 122° |
| 2026-05-03 21:31 | 36.55414 | 130.87285 | 38742 ft | 556 kts | 122° |
| 2026-05-03 21:32 | 36.52537 | 130.96197 | 38738 ft | 554 kts | 122° |
| 2026-05-03 21:32 | 36.49657 | 131.05080 | 38727 ft | 553 kts | 122° |
| 2026-05-03 21:33 | 36.46778 | 131.13935 | 38676 ft | 553 kts | 123° |
| 2026-05-03 21:33 | 36.43896 | 131.22773 | 38706 ft | 551 kts | 123° |
| 2026-05-03 21:34 | 36.41032 | 131.31530 | 38706 ft | 551 kts | 123° |
| 2026-05-03 21:34 | 36.38376 | 131.40512 | 38687 ft | 563 kts | 115° |
| 2026-05-03 21:35 | 36.37532 | 131.45305 | 38688 ft | 574 kts | 108° |
| 2026-05-03 21:35 | 36.37076 | 131.50257 | 38696 ft | 583 kts | 101° |
| 2026-05-03 21:35 | 36.36789 | 131.60372 | 38695 ft | 587 kts | 99° |
| 2026-05-03 21:36 | 36.36479 | 131.70510 | 38717 ft | 589 kts | 100° |
| 2026-05-03 21:36 | 36.36154 | 131.80594 | 38729 ft | 589 kts | 100° |
| 2026-05-03 21:37 | 36.35818 | 131.90751 | 38746 ft | 589 kts | 100° |
| 2026-05-03 21:37 | 36.35474 | 132.00903 | 38712 ft | 588 kts | 101° |
| 2026-05-03 21:38 | 36.35124 | 132.10962 | 38734 ft | 587 kts | 101° |
| 2026-05-03 21:38 | 36.34764 | 132.21071 | 38739 ft | 586 kts | 101° |
| 2026-05-03 21:39 | 36.34396 | 132.31168 | 38738 ft | 585 kts | 101° |
| 2026-05-03 21:39 | 36.34020 | 132.41244 | 38689 ft | 584 kts | 101° |
| 2026-05-03 21:40 | 36.33637 | 132.51295 | 38712 ft | 583 kts | 101° |
| 2026-05-03 21:40 | 36.33248 | 132.61264 | 38712 ft | 583 kts | 101° |
| 2026-05-03 21:41 | 36.32848 | 132.71282 | 38698 ft | 582 kts | 101° |
| 2026-05-03 21:41 | 36.32440 | 132.81315 | 38706 ft | 583 kts | 101° |
| 2026-05-03 21:42 | 36.32022 | 132.91365 | 38716 ft | 583 kts | 101° |
| 2026-05-03 21:42 | 36.31597 | 133.01412 | 38718 ft | 584 kts | 101° |
| 2026-05-03 21:43 | 36.31166 | 133.11401 | 38716 ft | 584 kts | 101° |
| 2026-05-03 21:43 | 36.30723 | 133.21462 | 38720 ft | 585 kts | 101° |
| 2026-05-03 21:44 | 36.30273 | 133.31525 | 38711 ft | 584 kts | 101° |
| 2026-05-03 21:44 | 36.29813 | 133.41572 | 38711 ft | 584 kts | 101° |
| 2026-05-03 21:45 | 36.29348 | 133.51550 | 38708 ft | 584 kts | 101° |
| 2026-05-03 21:45 | 36.28872 | 133.61604 | 38712 ft | 584 kts | 102° |
| 2026-05-03 21:46 | 36.28389 | 133.71631 | 38708 ft | 582 kts | 101° |
| 2026-05-03 21:46 | 36.27900 | 133.81653 | 38703 ft | 582 kts | 101° |
| 2026-05-03 21:47 | 36.27397 | 133.91659 | 38703 ft | 582 kts | 102° |
| 2026-05-03 21:47 | 36.26890 | 134.01603 | 38660 ft | 581 kts | 102° |
| 2026-05-03 21:48 | 36.26377 | 134.11567 | 38736 ft | 579 kts | 102° |
| 2026-05-03 21:48 | 36.25854 | 134.21504 | 38731 ft | 578 kts | 102° |
| 2026-05-03 21:49 | 36.25325 | 134.31422 | 38726 ft | 577 kts | 102° |
| 2026-05-03 21:49 | 36.24792 | 134.41263 | 38717 ft | 575 kts | 102° |
| 2026-05-03 21:50 | 36.24735 | 134.51223 | 38717 ft | 586 kts | 91° |
| 2026-05-03 21:50 | 36.26132 | 134.61243 | 38709 ft | 593 kts | 83° |
| 2026-05-03 21:51 | 36.27825 | 134.71232 | 38707 ft | 592 kts | 83° |
| 2026-05-03 21:51 | 36.29478 | 134.81148 | 38701 ft | 591 kts | 84° |
| 2026-05-03 21:52 | 36.31136 | 134.91132 | 38685 ft | 591 kts | 84° |
| 2026-05-03 21:52 | 36.32767 | 135.01001 | 38686 ft | 591 kts | 84° |
| 2026-05-03 21:53 | 36.34410 | 135.10994 | 38681 ft | 592 kts | 84° |
| 2026-05-03 21:53 | 36.36037 | 135.20946 | 38687 ft | 593 kts | 84° |
| 2026-05-03 21:54 | 36.37663 | 135.30944 | 38703 ft | 594 kts | 84° |
| 2026-05-03 21:54 | 36.39290 | 135.41003 | 38705 ft | 595 kts | 85° |
| 2026-05-03 21:55 | 36.40912 | 135.51085 | 38710 ft | 595 kts | 85° |
| 2026-05-03 21:55 | 36.42524 | 135.61171 | 38716 ft | 596 kts | 85° |
| 2026-05-03 21:56 | 36.44121 | 135.71209 | 38721 ft | 596 kts | 86° |
| 2026-05-03 21:56 | 36.45718 | 135.81304 | 38721 ft | 596 kts | 86° |
| 2026-05-03 21:57 | 36.47305 | 135.91407 | 38718 ft | 596 kts | 86° |
| 2026-05-03 21:57 | 36.48874 | 136.01445 | 38720 ft | 596 kts | 86° |
| 2026-05-03 21:58 | 36.50443 | 136.11531 | 38726 ft | 593 kts | 86° |
| 2026-05-03 21:58 | 36.51999 | 136.21607 | 38706 ft | 593 kts | 87° |
| 2026-05-03 21:59 | 36.53543 | 136.31661 | 38703 ft | 592 kts | 87° |
| 2026-05-03 21:59 | 36.55067 | 136.41647 | 38703 ft | 592 kts | 87° |
| 2026-05-03 22:00 | 36.56593 | 136.51705 | 38719 ft | 592 kts | 87° |
| 2026-05-03 22:00 | 36.58110 | 136.61755 | 38721 ft | 591 kts | 87° |
| 2026-05-03 22:01 | 36.59619 | 136.71818 | 38704 ft | 590 kts | 87° |
| 2026-05-03 22:01 | 36.61117 | 136.81854 | 38709 ft | 589 kts | 87° |
| 2026-05-03 22:02 | 36.62593 | 136.91810 | 38674 ft | 590 kts | 87° |
| 2026-05-03 22:02 | 36.64065 | 137.01865 | 38667 ft | 590 kts | 87° |
| 2026-05-03 22:03 | 36.65501 | 137.11917 | 38668 ft | 590 kts | 87° |
| 2026-05-03 22:03 | 36.66936 | 137.22000 | 38650 ft | 594 kts | 87° |
| 2026-05-03 22:04 | 36.68365 | 137.32078 | 38646 ft | 596 kts | 87° |
| 2026-05-03 22:04 | 36.69801 | 137.42260 | 38685 ft | 598 kts | 87° |
| 2026-05-03 22:05 | 36.71227 | 137.52467 | 38730 ft | 597 kts | 86° |
| 2026-05-03 22:05 | 36.72635 | 137.62594 | 38713 ft | 598 kts | 87° |
| 2026-05-03 22:06 | 36.73297 | 137.67363 | 38715 ft | 598 kts | 87° |
| 2026-05-03 22:06 | 36.74633 | 137.77026 | 38706 ft | 597 kts | 86° |
| 2026-05-03 22:07 | 36.75987 | 137.86900 | 38701 ft | 593 kts | 87° |
| 2026-05-03 22:07 | 36.77175 | 137.95607 | 38684 ft | 592 kts | 87° |
| 2026-05-03 22:08 | 36.78571 | 138.05931 | 38673 ft | 591 kts | 87° |
| 2026-05-03 22:08 | 36.79943 | 138.16027 | 38675 ft | 591 kts | 86° |
| 2026-05-03 22:09 | 36.81329 | 138.26073 | 38684 ft | 592 kts | 86° |
| 2026-05-03 22:10 | 36.83406 | 138.41273 | 38703 ft | 591 kts | 86° |
| 2026-05-03 22:10 | 36.84774 | 138.51403 | 38690 ft | 591 kts | 86° |
| 2026-05-03 22:11 | 36.86098 | 138.61433 | 38672 ft | 589 kts | 87° |